createdAt,value
2022-10-22T00:16:21.541Z,201
2022-10-22T00:36:21.537Z,202
2022-10-22T00:56:21.036Z,201
2022-10-22T01:16:21.063Z,200
2022-10-22T01:36:21.537Z,199
2022-10-22T01:56:21.543Z,198
2022-10-22T02:16:21.545Z,197
2022-10-22T02:36:21.541Z,198
2022-10-22T02:56:21.557Z,197
2022-10-22T03:16:21.563Z,196
2022-10-22T03:36:21.549Z,196
2022-10-22T03:56:21.565Z,195
2022-10-22T04:16:21.787Z,196
2022-10-22T04:36:21.579Z,195
2022-10-22T04:56:21.571Z,195
2022-10-22T05:16:21.653Z,197
2022-10-22T05:36:21.568Z,195
2022-10-22T06:16:21.561Z,189
2022-10-22T06:36:21.574Z,189
2022-10-22T07:16:21.590Z,193
2022-10-22T07:36:21.391Z,193
2022-10-22T07:56:21.579Z,199
2022-10-22T08:16:21.598Z,201
2022-10-22T08:36:21.569Z,207
2022-10-22T08:56:21.579Z,205
2022-10-22T09:16:21.582Z,198
2022-10-22T09:36:21.559Z,191
2022-10-22T09:56:21.576Z,195
2022-10-22T10:16:21.585Z,188
2022-10-22T10:36:21.555Z,191
2022-10-22T10:56:21.561Z,185
2022-10-22T11:16:21.556Z,186
2022-10-22T11:36:21.568Z,187
2022-10-22T11:56:21.538Z,187
2022-10-22T12:16:27.165Z,183
2022-10-22T12:36:21.536Z,181
2022-10-22T12:56:21.092Z,185
2022-10-22T13:16:21.523Z,185
2022-10-22T13:36:21.525Z,180
2022-10-22T13:56:21.317Z,181
2022-10-22T14:16:21.500Z,179
2022-10-22T14:36:21.495Z,178
2022-10-22T14:56:21.584Z,174
2022-10-22T15:16:21.484Z,179
2022-10-22T15:36:21.513Z,175
2022-10-22T15:56:21.002Z,170
2022-10-22T16:16:21.463Z,171
2022-10-22T16:36:21.540Z,175
2022-10-22T16:56:21.474Z,178
2022-10-22T17:16:21.476Z,179
2022-10-22T17:36:21.466Z,181
2022-10-22T17:56:21.481Z,182
2022-10-22T18:16:21.459Z,183
2022-10-22T18:56:21.664Z,183
2022-10-22T19:16:21.464Z,184
2022-10-22T19:36:21.505Z,183
2022-10-22T19:56:21.471Z,185
2022-10-22T20:36:21.561Z,184
2022-10-22T20:56:20.988Z,184
2022-10-22T21:16:21.048Z,185
2022-10-22T21:36:22.878Z,185
2022-10-22T21:56:21.485Z,185
2022-10-22T22:16:23.840Z,185
2022-10-22T22:36:21.491Z,185
2022-10-22T22:56:21.515Z,186
2022-10-22T23:16:21.491Z,186
2022-10-22T23:36:21.317Z,185
2022-10-22T23:56:21.508Z,185
